Terminal Aerodrome Forecast
Issued by NWS

Home | Current Version | Previous Version | Text Only | Print | Product List | Glossary On
Versions: 1 2 3 4 5 6 7 8 9 10 11 12 13 14 15 16 17 18
000
FTUS42 KMLB 170500 RRA
TAFLEE
TAF
KLEE 170541Z 1706/1806 02007KT P6SM SCT040
     FM171400 04011KT P6SM SCT040
     FM171600 05013G22KT P6SM SCT035 BKN050
     FM180000 03011KT P6SM VCSH BKN040=

USA.gov is the U.S. government's official web portal to all federal, state and local government web resources and services.